createdAt,value
2022-09-28T00:00:32.565Z,0.00
2022-09-28T00:01:32.689Z,0.00
2022-09-28T00:02:32.827Z,0.00
2022-09-28T00:03:32.813Z,0.00
2022-09-28T00:04:32.856Z,0.00
2022-09-28T00:05:32.944Z,0.00
2022-09-28T00:06:33.025Z,0.00
2022-09-28T00:07:33.099Z,0.00
2022-09-28T00:08:33.189Z,0.00
2022-09-28T00:09:33.272Z,0.00
2022-09-28T00:10:33.353Z,0.00
2022-09-28T00:11:33.423Z,0.00
2022-09-28T00:12:33.506Z,0.00
2022-09-28T00:13:33.691Z,0.00
2022-09-28T00:14:33.647Z,0.00
2022-09-28T00:15:33.742Z,0.00
2022-09-28T00:16:33.887Z,0.00
2022-09-28T00:17:33.921Z,0.00
2022-09-28T00:18:34.021Z,0.00
2022-09-28T00:19:34.090Z,0.00
2022-09-28T00:20:34.171Z,0.00
2022-09-28T00:21:34.270Z,0.00
2022-09-28T00:22:34.351Z,0.00
2022-09-28T00:23:34.447Z,0.00
2022-09-28T00:24:34.498Z,0.00
2022-09-28T00:25:34.610Z,0.00
2022-09-28T00:26:34.684Z,0.00
2022-09-28T00:27:34.752Z,0.00
2022-09-28T00:28:34.848Z,0.00
2022-09-28T00:29:34.944Z,0.00
2022-09-28T00:30:35.016Z,0.00
2022-09-28T00:31:35.186Z,0.00
2022-09-28T00:32:35.197Z,0.00
2022-09-28T00:33:35.283Z,0.00
2022-09-28T00:34:35.328Z,0.00
2022-09-28T00:35:35.402Z,0.00
2022-09-28T00:36:35.476Z,0.00
2022-09-28T00:37:35.567Z,0.00
2022-09-28T00:38:35.653Z,0.00
2022-09-28T00:39:35.726Z,0.00
2022-09-28T00:40:35.806Z,0.00
2022-09-28T00:41:35.895Z,0.00
2022-09-28T00:42:35.975Z,0.00
2022-09-28T00:43:36.191Z,0.00
2022-09-28T00:44:36.162Z,0.00
2022-09-28T00:45:36.299Z,0.00
2022-09-28T00:46:36.293Z,0.00
2022-09-28T00:47:36.406Z,0.00
2022-09-28T00:48:36.488Z,0.00
2022-09-28T00:49:36.550Z,0.00
2022-09-28T00:50:36.632Z,0.00
2022-09-28T00:51:36.723Z,0.00
2022-09-28T00:52:36.801Z,0.00
2022-09-28T00:53:36.933Z,0.00
2022-09-28T00:54:36.984Z,0.00
2022-09-28T00:55:37.080Z,0.00
2022-09-28T00:56:37.145Z,0.00
2022-09-28T00:57:37.234Z,0.00
2022-09-28T00:58:37.314Z,0.00
2022-09-28T00:59:37.373Z,0.00
2022-09-28T01:00:37.479Z,0.00
2022-09-28T01:01:37.556Z,0.00
2022-09-28T01:02:37.616Z,0.00
2022-09-28T01:03:37.740Z,0.00
2022-09-28T01:04:37.804Z,0.00
2022-09-28T01:05:37.908Z,0.00
2022-09-28T01:06:37.985Z,0.00
2022-09-28T01:07:38.084Z,0.00
2022-09-28T01:08:38.172Z,0.00
2022-09-28T01:09:38.239Z,0.00
2022-09-28T01:10:38.313Z,0.00
2022-09-28T01:11:38.414Z,0.00
2022-09-28T01:12:38.487Z,0.00
2022-09-28T01:13:38.887Z,0.00
2022-09-28T01:14:38.636Z,0.00
2022-09-28T01:15:38.731Z,0.00
2022-09-28T01:16:38.877Z,0.00
2022-09-28T01:17:38.897Z,0.00
2022-09-28T01:18:38.984Z,0.00
2022-09-28T01:19:39.060Z,0.00
2022-09-28T01:20:39.125Z,0.00
2022-09-28T01:21:39.229Z,0.00
2022-09-28T01:22:39.307Z,0.00
2022-09-28T01:23:39.522Z,0.00
2022-09-28T01:24:39.490Z,0.00
2022-09-28T01:25:39.607Z,0.00
2022-09-28T01:26:39.618Z,0.00
2022-09-28T01:27:39.712Z,0.00
2022-09-28T01:28:39.812Z,0.00
2022-09-28T01:29:39.882Z,0.00
2022-09-28T01:30:39.951Z,0.00
2022-09-28T01:31:40.092Z,0.00
2022-09-28T01:32:40.129Z,0.00
2022-09-28T01:33:40.247Z,0.00
2022-09-28T01:34:40.289Z,0.00
2022-09-28T01:35:40.383Z,0.00
2022-09-28T01:36:40.460Z,0.00
2022-09-28T01:37:40.563Z,0.00
2022-09-28T01:38:40.657Z,0.00
2022-09-28T01:39:40.726Z,0.00
2022-09-28T01:40:40.926Z,0.00
2022-09-28T01:41:40.912Z,0.00
2022-09-28T01:42:40.981Z,0.00
2022-09-28T01:43:41.105Z,0.00
2022-09-28T01:44:41.163Z,0.00
2022-09-28T01:45:41.339Z,0.00
2022-09-28T01:46:41.329Z,0.00
2022-09-28T01:47:41.429Z,0.00
2022-09-28T01:48:41.717Z,0.00
2022-09-28T01:49:41.589Z,0.00
2022-09-28T01:50:41.663Z,0.00
2022-09-28T01:51:41.745Z,0.00
2022-09-28T01:52:41.840Z,0.00
2022-09-28T01:53:41.947Z,0.00
2022-09-28T01:54:42.018Z,0.00
2022-09-28T01:55:42.091Z,0.00
2022-09-28T01:56:42.192Z,0.00
2022-09-28T01:57:42.270Z,0.00
2022-09-28T01:58:42.387Z,0.00
2022-09-28T01:59:42.462Z,0.00
2022-09-28T02:00:42.602Z,0.00
2022-09-28T02:01:42.655Z,0.00
2022-09-28T02:02:42.721Z,0.00
2022-09-28T02:03:42.837Z,0.00
2022-09-28T02:04:42.882Z,0.00
2022-09-28T02:05:42.954Z,0.00
2022-09-28T02:06:43.055Z,0.00
2022-09-28T02:07:43.123Z,0.00
2022-09-28T02:08:43.241Z,0.00
2022-09-28T02:09:43.279Z,0.00
2022-09-28T02:10:43.369Z,0.00
2022-09-28T02:11:43.444Z,0.00
2022-09-28T02:12:43.539Z,0.00
2022-09-28T02:13:43.626Z,0.00
2022-09-28T02:14:43.687Z,0.00
2022-09-28T02:15:43.762Z,0.00
2022-09-28T02:16:43.944Z,0.00
2022-09-28T02:17:43.916Z,0.00
2022-09-28T02:18:44.044Z,0.00
2022-09-28T02:19:44.076Z,0.00
2022-09-28T02:20:44.174Z,0.00
2022-09-28T02:21:44.249Z,0.00
2022-09-28T02:22:44.345Z,0.00
2022-09-28T02:23:44.448Z,0.00
2022-09-28T02:24:44.512Z,0.00
2022-09-28T02:25:44.585Z,0.00
2022-09-28T02:26:44.671Z,0.00
2022-09-28T02:27:44.751Z,0.00
2022-09-28T02:28:44.866Z,0.00
2022-09-28T02:29:44.906Z,0.00
2022-09-28T02:30:45.005Z,0.00
2022-09-28T02:31:45.225Z,0.00
2022-09-28T02:32:45.171Z,0.00
2022-09-28T02:33:45.228Z,0.00
2022-09-28T02:34:45.293Z,0.00
2022-09-28T02:35:45.377Z,0.00
2022-09-28T02:36:45.451Z,0.00
2022-09-28T02:37:45.519Z,0.00
2022-09-28T02:38:45.632Z,0.00
2022-09-28T02:39:45.696Z,0.00
2022-09-28T02:40:45.901Z,0.00
2022-09-28T02:41:45.853Z,0.00
2022-09-28T02:42:45.951Z,0.00
2022-09-28T02:43:46.041Z,0.00
2022-09-28T02:44:46.110Z,0.00
2022-09-28T02:45:46.268Z,0.00
2022-09-28T02:46:46.271Z,0.00
2022-09-28T02:47:46.344Z,0.00
2022-09-28T02:48:55.849Z,0.00
2022-09-28T02:49:46.499Z,0.00
2022-09-28T02:50:46.590Z,0.00
2022-09-28T02:51:46.667Z,0.00
2022-09-28T02:52:46.773Z,0.00
2022-09-28T02:53:46.939Z,0.00
2022-09-28T02:54:46.924Z,0.00
2022-09-28T02:55:46.993Z,0.00
2022-09-28T02:56:47.082Z,0.00
2022-09-28T02:57:47.148Z,0.00
2022-09-28T02:58:47.269Z,0.00
2022-09-28T02:59:47.344Z,0.00
2022-09-28T03:00:47.524Z,0.00
2022-09-28T03:01:47.544Z,0.00
2022-09-28T03:02:47.587Z,0.00
2022-09-28T03:03:47.707Z,0.00
2022-09-28T03:04:47.729Z,0.00
2022-09-28T03:05:47.814Z,0.00
2022-09-28T03:06:47.901Z,0.00
2022-09-28T03:07:48.011Z,0.00
2022-09-28T03:08:48.108Z,0.00
2022-09-28T03:09:48.177Z,0.00
2022-09-28T03:10:48.248Z,0.00
2022-09-28T03:11:48.344Z,0.00
2022-09-28T03:12:48.432Z,0.00
2022-09-28T03:13:48.625Z,0.00
2022-09-28T03:14:48.589Z,0.00
2022-09-28T03:15:49.162Z,0.00
2022-09-28T03:16:48.776Z,0.00
2022-09-28T03:17:48.872Z,0.00
2022-09-28T03:18:49.003Z,0.00
2022-09-28T03:19:49.060Z,0.00
2022-09-28T03:20:49.131Z,0.00
2022-09-28T03:21:49.222Z,0.00
2022-09-28T03:23:06.423Z,0.00
2022-09-28T03:23:49.416Z,0.00
2022-09-28T03:24:49.445Z,0.00
2022-09-28T03:25:49.548Z,0.00
2022-09-28T03:26:49.613Z,0.00
2022-09-28T03:27:49.692Z,0.00
2022-09-28T03:28:49.769Z,0.00
2022-09-28T03:29:49.839Z,0.00
2022-09-28T03:30:49.912Z,0.00
2022-09-28T03:31:50.027Z,0.00
2022-09-28T03:32:50.068Z,0.00
2022-09-28T03:33:50.185Z,0.00
2022-09-28T03:34:50.218Z,0.00
2022-09-28T03:35:50.288Z,0.00
2022-09-28T03:36:50.357Z,0.00
2022-09-28T03:37:50.459Z,0.00
2022-09-28T03:38:50.568Z,0.00
2022-09-28T03:39:50.642Z,0.00
2022-09-28T03:40:50.760Z,0.00
2022-09-28T03:41:50.804Z,0.00
2022-09-28T03:42:50.882Z,0.00
2022-09-28T03:43:50.997Z,0.00
2022-09-28T03:44:51.031Z,0.00
2022-09-28T03:45:51.153Z,0.00
2022-09-28T03:46:51.181Z,0.00
2022-09-28T03:47:51.289Z,0.00
2022-09-28T03:48:51.367Z,0.00
2022-09-28T03:49:51.420Z,0.00
2022-09-28T03:50:51.506Z,0.00
2022-09-28T03:51:51.604Z,0.00
2022-09-28T03:52:51.660Z,0.00
2022-09-28T03:53:51.842Z,0.00
2022-09-28T03:54:51.812Z,0.00
2022-09-28T03:55:51.905Z,0.00
2022-09-28T03:56:51.956Z,0.00
2022-09-28T03:57:52.029Z,0.00
2022-09-28T03:58:52.096Z,0.00
2022-09-28T03:59:52.178Z,0.00
2022-09-28T04:00:52.313Z,0.00
2022-09-28T04:01:52.505Z,0.00
2022-09-28T04:02:52.450Z,0.00
2022-09-28T04:03:52.577Z,0.00
2022-09-28T04:04:52.630Z,0.00
2022-09-28T04:05:52.713Z,0.00
2022-09-28T04:06:52.773Z,0.00
2022-09-28T04:07:52.865Z,0.00
2022-09-28T04:08:52.930Z,0.00
2022-09-28T04:09:53.010Z,0.00
2022-09-28T04:10:53.061Z,0.00
2022-09-28T04:12:03.337Z,0.00
2022-09-28T04:12:53.226Z,0.00
2022-09-28T04:13:53.318Z,0.00
2022-09-28T04:14:53.371Z,0.00
2022-09-28T04:15:53.446Z,0.00
2022-09-28T04:16:53.570Z,0.00
2022-09-28T04:17:53.603Z,0.00
2022-09-28T04:18:53.677Z,0.00
2022-09-28T04:19:53.734Z,0.00
2022-09-28T04:20:53.820Z,0.00
2022-09-28T04:21:53.899Z,0.00
2022-09-28T04:22:53.964Z,0.00
2022-09-28T04:23:54.081Z,0.00
2022-09-28T04:24:54.108Z,0.00
2022-09-28T04:25:54.201Z,0.00
2022-09-28T04:26:54.287Z,0.00
2022-09-28T04:27:54.380Z,0.00
2022-09-28T04:28:54.477Z,0.00
2022-09-28T04:29:54.521Z,0.00
2022-09-28T04:30:54.594Z,0.00
2022-09-28T04:31:54.731Z,0.00
2022-09-28T04:32:54.773Z,0.00
2022-09-28T04:33:54.951Z,0.00
2022-09-28T04:34:54.937Z,0.00
2022-09-28T04:35:55.044Z,0.00
2022-09-28T04:36:55.105Z,0.00
2022-09-28T04:37:55.171Z,0.00
2022-09-28T04:38:55.256Z,0.00
2022-09-28T04:39:55.325Z,0.00
2022-09-28T04:40:55.501Z,0.00
2022-09-28T04:41:55.492Z,0.00
2022-09-28T04:42:55.555Z,0.00
2022-09-28T04:43:55.667Z,0.00
2022-09-28T04:44:55.692Z,0.00
2022-09-28T04:45:55.848Z,0.00
2022-09-28T04:46:55.822Z,0.00
2022-09-28T04:47:55.932Z,0.00
2022-09-28T04:48:56.018Z,0.00
2022-09-28T04:49:56.103Z,0.00
2022-09-28T04:50:56.173Z,0.00
2022-09-28T04:51:56.269Z,0.00
2022-09-28T04:52:56.337Z,0.00
2022-09-28T04:53:56.433Z,0.00
2022-09-28T04:54:56.475Z,0.00
2022-09-28T04:55:56.570Z,0.00
2022-09-28T04:56:56.643Z,0.00
2022-09-28T04:57:56.742Z,0.00
2022-09-28T04:58:56.836Z,0.00
2022-09-28T04:59:56.897Z,0.00
2022-09-28T05:00:56.971Z,0.00
2022-09-28T05:01:57.092Z,0.00
2022-09-28T05:02:57.122Z,4.00
2022-09-28T05:03:57.268Z,4.00
2022-09-28T05:04:57.287Z,0.00
2022-09-28T05:05:57.377Z,4.00
2022-09-28T05:06:57.441Z,4.00
2022-09-28T05:07:57.543Z,4.00
2022-09-28T05:08:57.619Z,4.00
2022-09-28T05:09:57.680Z,4.00
2022-09-28T05:10:57.766Z,8.00
2022-09-28T05:11:57.854Z,12.00
2022-09-28T05:12:57.925Z,12.00
2022-09-28T05:13:58.082Z,16.00
2022-09-28T05:14:58.105Z,20.00
2022-09-28T05:16:03.037Z,24.00
2022-09-28T05:16:58.330Z,28.00
2022-09-28T05:17:58.345Z,32.00
2022-09-28T05:18:58.418Z,44.00
2022-09-28T05:19:58.513Z,48.00
2022-09-28T05:20:58.574Z,64.00
2022-09-28T05:21:58.675Z,76.00
2022-09-28T05:22:58.736Z,84.00
2022-09-28T05:23:58.854Z,100.00
2022-09-28T05:24:58.891Z,116.00
2022-09-28T05:25:58.986Z,128.00
2022-09-28T05:26:59.040Z,144.00
2022-09-28T05:27:59.130Z,164.00
2022-09-28T05:28:59.225Z,184.00
2022-09-28T05:29:59.301Z,212.00
2022-09-28T05:30:59.358Z,232.00
2022-09-28T05:31:59.456Z,260.00
2022-09-28T05:32:59.509Z,288.00
2022-09-28T05:33:59.630Z,320.00
2022-09-28T05:34:59.656Z,348.00
2022-09-28T05:36:01.466Z,372.00
2022-09-28T05:36:59.838Z,396.00
2022-09-28T05:37:59.940Z,436.00
2022-09-28T05:39:00.048Z,480.00
2022-09-28T05:40:00.119Z,528.00
2022-09-28T05:41:04.395Z,620.00
2022-09-28T05:42:00.301Z,764.00
2022-09-28T05:43:00.381Z,908.00
2022-09-28T05:44:00.698Z,984.00
2022-09-28T05:45:00.563Z,1020.00
2022-09-28T05:46:00.787Z,1052.00
2022-09-28T05:47:00.723Z,1088.00
2022-09-28T05:48:00.817Z,1128.00
2022-09-28T05:49:00.906Z,1192.00
2022-09-28T05:50:00.982Z,1268.00
2022-09-28T05:51:01.040Z,1408.00
2022-09-28T05:52:01.130Z,1536.00
2022-09-28T05:53:01.216Z,1624.00
2022-09-28T05:54:05.704Z,1672.00
2022-09-28T05:55:01.377Z,1688.00
2022-09-28T05:56:01.460Z,1700.00
2022-09-28T05:57:01.543Z,1716.00
2022-09-28T05:58:01.637Z,1736.00
2022-09-28T05:59:01.851Z,1704.00
2022-09-28T06:00:01.772Z,1708.00
2022-09-28T06:01:01.910Z,1744.00
2022-09-28T06:02:01.976Z,2056.00
2022-09-28T06:03:05.510Z,2280.00
2022-09-28T06:04:02.140Z,2428.00
2022-09-28T06:05:02.188Z,2520.00
2022-09-28T06:06:02.288Z,2628.00
2022-09-28T06:07:02.359Z,2600.00
2022-09-28T06:08:02.475Z,2528.00
2022-09-28T06:09:02.555Z,2560.00
2022-09-28T06:10:02.638Z,2540.00
2022-09-28T06:11:02.710Z,2500.00
2022-09-28T06:12:02.801Z,2536.00
2022-09-28T06:13:02.861Z,2708.00
2022-09-28T06:14:02.986Z,2844.00
2022-09-28T06:15:03.049Z,2620.00
2022-09-28T06:16:03.119Z,2320.00
2022-09-28T06:17:03.295Z,2200.00
2022-09-28T06:18:03.313Z,2228.00
2022-09-28T06:19:03.421Z,2316.00
2022-09-28T06:20:03.505Z,2384.00
2022-09-28T06:21:03.556Z,2484.00
2022-09-28T06:22:03.645Z,2596.00
2022-09-28T06:23:03.705Z,2628.00
2022-09-28T06:24:03.875Z,2640.00
2022-09-28T06:25:03.888Z,2532.00
2022-09-28T06:26:03.993Z,2436.00
2022-09-28T06:27:04.087Z,2436.00
2022-09-28T06:28:04.170Z,2448.00
2022-09-28T06:29:04.279Z,2392.00
2022-09-28T06:30:04.352Z,2372.00
2022-09-28T06:31:04.541Z,2376.00
2022-09-28T06:32:04.503Z,2460.00
2022-09-28T06:33:04.584Z,2560.00
2022-09-28T06:34:04.691Z,2596.00
2022-09-28T06:35:04.732Z,2584.00
2022-09-28T06:36:04.804Z,2540.00
2022-09-28T06:37:04.878Z,2544.00
2022-09-28T06:38:04.966Z,2536.00
2022-09-28T06:39:05.038Z,2600.00
2022-09-28T06:40:05.121Z,2748.00
2022-09-28T06:41:05.283Z,2808.00
2022-09-28T06:42:05.275Z,2848.00
2022-09-28T06:43:05.327Z,2828.00
2022-09-28T06:44:05.428Z,2860.00
2022-09-28T06:45:05.463Z,2828.00
2022-09-28T06:46:05.614Z,2700.00
2022-09-28T06:47:05.619Z,2700.00
2022-09-28T06:48:05.699Z,2752.00
2022-09-28T06:49:05.810Z,2856.00
2022-09-28T06:50:05.884Z,3008.00
2022-09-28T06:51:05.933Z,3272.00
2022-09-28T06:52:06.012Z,3768.00
2022-09-28T06:53:06.073Z,7392.00
2022-09-28T06:54:06.309Z,7268.00
2022-09-28T06:55:06.240Z,5820.00
2022-09-28T06:56:06.318Z,5896.00
2022-09-28T06:57:06.405Z,5652.00
2022-09-28T06:58:06.485Z,5440.00
2022-09-28T06:59:06.557Z,5508.00
2022-09-28T07:00:06.637Z,5436.00
2022-09-28T07:01:06.806Z,5524.00
2022-09-28T07:02:06.875Z,5668.00
2022-09-28T07:03:06.873Z,5928.00
2022-09-28T07:04:07.069Z,6508.00
2022-09-28T07:05:07.030Z,7212.00
2022-09-28T07:06:07.108Z,7984.00
2022-09-28T07:07:07.190Z,8676.00
2022-09-28T07:08:07.273Z,9552.00
2022-09-28T07:09:27.657Z,10380.00
2022-09-28T07:10:07.427Z,10608.00
2022-09-28T07:11:07.500Z,10608.00
2022-09-28T07:12:07.604Z,10328.00
2022-09-28T07:13:13.123Z,9228.00
2022-09-28T07:14:08.398Z,8296.00
2022-09-28T07:15:07.842Z,6752.00
2022-09-28T07:16:08.024Z,5760.00
2022-09-28T07:17:13.524Z,5456.00
2022-09-28T07:18:08.114Z,5880.00
2022-09-28T07:19:08.148Z,6444.00
2022-09-28T07:20:18.476Z,7020.00
2022-09-28T07:21:10.646Z,7720.00
2022-09-28T07:22:08.348Z,8384.00
2022-09-28T07:23:18.455Z,9128.00
2022-09-28T07:24:08.602Z,9628.00
2022-09-28T07:25:08.613Z,9856.00
2022-09-28T07:26:09.376Z,10020.00
2022-09-28T07:27:08.777Z,10048.00
2022-09-28T07:28:08.838Z,10232.00
2022-09-28T07:29:08.936Z,9560.00
2022-09-28T07:30:08.977Z,9052.00
2022-09-28T07:31:09.122Z,8708.00
2022-09-28T07:32:09.140Z,8140.00
2022-09-28T07:33:09.230Z,7336.00
2022-09-28T07:34:09.321Z,6444.00
2022-09-28T07:35:09.393Z,5832.00
2022-09-28T07:36:09.469Z,5528.00
2022-09-28T07:37:09.544Z,5060.00
2022-09-28T07:38:09.623Z,4704.00
2022-09-28T07:39:09.741Z,4488.00
2022-09-28T07:40:09.781Z,4280.00
2022-09-28T07:41:09.936Z,4144.00
2022-09-28T07:42:09.945Z,4200.00
2022-09-28T07:43:10.022Z,4200.00
2022-09-28T07:44:10.164Z,4064.00
2022-09-28T07:45:10.210Z,4024.00
2022-09-28T07:46:10.369Z,4368.00
2022-09-28T07:47:10.371Z,4612.00
2022-09-28T07:49:12.370Z,5620.00
2022-09-28T07:50:10.638Z,5952.00
2022-09-28T07:51:10.714Z,5928.00
2022-09-28T07:52:10.829Z,5896.00
2022-09-28T07:53:10.873Z,5916.00
2022-09-28T07:54:10.980Z,5784.00
2022-09-28T07:55:11.073Z,5248.00
2022-09-28T07:56:11.118Z,5200.00
2022-09-28T07:57:11.194Z,5556.00
2022-09-28T07:58:11.271Z,5876.00
2022-09-28T07:59:11.382Z,5760.00
2022-09-28T08:00:11.422Z,5380.00
2022-09-28T08:01:11.582Z,5464.00
2022-09-28T08:02:11.636Z,5868.00
2022-09-28T08:03:11.688Z,5980.00
2022-09-28T08:04:11.762Z,6180.00
2022-09-28T08:05:11.828Z,5968.00
2022-09-28T08:06:11.904Z,5392.00
2022-09-28T08:07:11.988Z,5136.00
2022-09-28T08:08:12.038Z,5232.00
2022-09-28T08:09:12.144Z,5384.00
2022-09-28T08:10:12.180Z,5744.00
2022-09-28T08:11:12.250Z,6516.00
2022-09-28T08:12:12.341Z,7352.00
2022-09-28T08:13:12.421Z,7780.00
2022-09-28T08:14:12.516Z,7416.00
2022-09-28T08:15:12.577Z,7012.00
2022-09-28T08:16:12.839Z,7344.00
2022-09-28T08:17:12.737Z,7884.00
2022-09-28T08:18:12.815Z,8384.00
2022-09-28T08:19:12.912Z,8844.00
2022-09-28T08:20:12.949Z,9808.00
2022-09-28T08:21:13.040Z,10068.00
2022-09-28T08:22:13.109Z,8984.00
2022-09-28T08:23:13.178Z,8292.00
2022-09-28T08:24:14.907Z,7280.00
2022-09-28T08:25:13.328Z,7084.00
2022-09-28T08:26:15.502Z,7068.00
2022-09-28T08:27:13.487Z,7628.00
2022-09-28T08:28:13.567Z,9152.00
2022-09-28T08:29:13.644Z,10056.00
2022-09-28T08:30:13.742Z,10520.00
2022-09-28T08:31:13.864Z,9004.00
2022-09-28T08:32:13.892Z,8020.00
2022-09-28T08:33:13.955Z,7156.00
2022-09-28T08:34:14.059Z,6620.00
2022-09-28T08:35:14.150Z,6532.00
2022-09-28T08:36:14.192Z,8000.00
2022-09-28T08:37:14.282Z,9824.00
2022-09-28T08:38:14.376Z,12536.00
2022-09-28T08:39:14.470Z,14576.00
2022-09-28T08:40:14.569Z,15400.00
2022-09-28T08:41:14.646Z,15228.00
2022-09-28T08:42:14.712Z,18464.00
2022-09-28T08:43:14.819Z,27808.00
2022-09-28T08:44:14.965Z,24608.00
2022-09-28T08:45:14.996Z,35616.00
2022-09-28T08:46:15.161Z,20768.00
2022-09-28T08:47:15.136Z,21600.00
2022-09-28T08:48:15.212Z,18528.00
2022-09-28T08:49:30.769Z,16800.00
2022-09-28T08:50:15.421Z,17888.00
2022-09-28T08:51:15.505Z,20960.00
2022-09-28T08:52:15.545Z,23008.00
2022-09-28T08:53:15.616Z,22432.00
2022-09-28T08:54:15.754Z,22624.00
2022-09-28T08:55:15.794Z,25024.00
2022-09-28T08:56:15.852Z,20192.00
2022-09-28T08:57:15.950Z,19840.00
2022-09-28T08:58:16.033Z,22368.00
2022-09-28T08:59:16.104Z,36064.00
2022-09-28T09:00:16.210Z,20448.00
2022-09-28T09:01:16.348Z,16896.00
2022-09-28T09:02:16.472Z,14664.00
2022-09-28T09:03:16.468Z,15876.00
2022-09-28T09:04:16.535Z,19552.00
2022-09-28T09:05:16.642Z,60352.00
2022-09-28T09:06:18.637Z,37760.00
2022-09-28T09:07:16.783Z,38528.00
2022-09-28T09:08:16.858Z,38048.00
2022-09-28T09:09:16.949Z,60448.00
2022-09-28T09:10:17.039Z,66272.00
2022-09-28T09:11:17.101Z,66816.00
2022-09-28T09:12:17.163Z,66208.00
2022-09-28T09:13:17.265Z,70496.00
2022-09-28T09:14:17.381Z,46912.00
2022-09-28T09:15:19.816Z,44608.00
2022-09-28T09:16:17.507Z,67392.00
2022-09-28T09:17:17.584Z,53984.00
2022-09-28T09:18:20.026Z,40160.00
2022-09-28T09:19:17.760Z,25568.00
2022-09-28T09:20:17.834Z,36704.00
2022-09-28T09:21:17.957Z,71136.00
2022-09-28T09:22:18.024Z,69024.00
2022-09-28T09:23:18.101Z,69216.00
2022-09-28T09:24:18.279Z,29152.00
2022-09-28T09:25:18.267Z,25440.00
2022-09-28T09:26:23.110Z,22976.00
2022-09-28T09:27:18.407Z,21888.00
2022-09-28T09:28:18.464Z,17120.00
2022-09-28T09:29:18.563Z,14908.00
2022-09-28T09:30:20.420Z,13540.00
2022-09-28T09:31:22.560Z,12348.00
2022-09-28T09:32:18.836Z,11636.00
2022-09-28T09:33:18.934Z,11164.00
2022-09-28T09:34:19.092Z,11496.00
2022-09-28T09:35:21.319Z,11812.00
2022-09-28T09:36:19.177Z,13944.00
2022-09-28T09:37:19.243Z,18080.00
2022-09-28T09:38:19.322Z,24320.00
2022-09-28T09:39:19.401Z,17024.00
2022-09-28T09:40:19.674Z,15832.00
2022-09-28T09:41:19.712Z,14692.00
2022-09-28T09:42:19.659Z,14028.00
2022-09-28T09:43:19.761Z,14132.00
2022-09-28T09:44:19.831Z,14304.00
2022-09-28T09:45:19.933Z,14112.00
2022-09-28T09:46:20.086Z,14788.00
2022-09-28T09:47:20.103Z,13368.00
2022-09-28T09:48:20.176Z,12760.00
2022-09-28T09:49:20.265Z,11240.00
2022-09-28T09:50:20.335Z,12224.00
2022-09-28T09:51:20.446Z,13240.00
2022-09-28T09:52:20.596Z,13480.00
2022-09-28T09:53:20.608Z,14812.00
2022-09-28T09:54:20.681Z,17568.00
2022-09-28T09:55:20.773Z,17952.00
2022-09-28T09:56:20.866Z,17184.00
2022-09-28T09:57:20.931Z,17472.00
2022-09-28T09:58:20.991Z,17632.00
2022-09-28T09:59:21.094Z,20096.00
2022-09-28T10:00:21.167Z,15164.00
2022-09-28T10:01:21.368Z,14512.00
2022-09-28T10:02:21.470Z,15016.00
2022-09-28T10:03:21.424Z,15376.00
2022-09-28T10:04:21.498Z,13872.00
2022-09-28T10:05:21.598Z,12224.00
2022-09-28T10:06:21.685Z,10540.00
2022-09-28T10:07:21.780Z,9128.00
2022-09-28T10:08:21.859Z,7748.00
2022-09-28T10:09:21.955Z,7100.00
2022-09-28T10:10:22.030Z,8552.00
2022-09-28T10:11:22.135Z,9560.00
2022-09-28T10:12:22.191Z,11916.00
2022-09-28T10:13:22.285Z,15904.00
2022-09-28T10:14:22.356Z,17088.00
2022-09-28T10:15:22.432Z,18720.00
2022-09-28T10:16:22.603Z,17504.00
2022-09-28T10:17:22.583Z,18272.00
2022-09-28T10:18:22.642Z,19136.00
2022-09-28T10:19:22.726Z,18304.00
2022-09-28T10:20:22.803Z,19488.00
2022-09-28T10:21:22.935Z,28832.00
2022-09-28T10:22:22.970Z,19264.00
2022-09-28T10:23:23.069Z,19840.00
2022-09-28T10:24:23.141Z,20544.00
2022-09-28T10:25:23.240Z,24608.00
2022-09-28T10:26:25.053Z,19488.00
2022-09-28T10:27:23.422Z,16896.00
2022-09-28T10:28:23.502Z,18912.00
2022-09-28T10:29:23.600Z,14336.00
2022-09-28T10:30:23.673Z,13656.00
2022-09-28T10:31:23.797Z,14408.00
2022-09-28T10:32:23.837Z,13380.00
2022-09-28T10:33:23.939Z,11872.00
2022-09-28T10:34:24.009Z,10852.00
2022-09-28T10:35:24.102Z,10512.00
2022-09-28T10:36:24.205Z,10044.00
2022-09-28T10:37:24.271Z,8904.00
2022-09-28T10:38:24.307Z,7800.00
2022-09-28T10:39:24.378Z,9356.00
2022-09-28T10:40:24.487Z,10264.00
2022-09-28T10:41:24.544Z,10236.00
2022-09-28T10:42:24.582Z,12032.00
2022-09-28T10:43:24.679Z,13920.00
2022-09-28T10:44:24.732Z,14740.00
2022-09-28T10:45:24.831Z,14596.00
2022-09-28T10:46:25.004Z,12884.00
2022-09-28T10:47:24.979Z,11232.00
2022-09-28T10:48:25.055Z,9332.00
2022-09-28T10:49:25.255Z,7824.00
2022-09-28T10:50:25.251Z,6576.00
2022-09-28T10:51:25.362Z,5452.00
2022-09-28T10:52:25.398Z,4468.00
2022-09-28T10:53:25.501Z,3724.00
2022-09-28T10:54:25.578Z,3232.00
2022-09-28T10:55:25.688Z,2952.00
2022-09-28T10:56:25.805Z,3088.00
2022-09-28T10:57:25.848Z,3436.00
2022-09-28T10:58:25.925Z,4084.00
2022-09-28T10:59:26.028Z,4836.00
2022-09-28T11:00:26.107Z,5900.00
2022-09-28T11:01:26.274Z,6832.00
2022-09-28T11:02:26.304Z,7704.00
2022-09-28T11:03:26.356Z,8744.00
2022-09-28T11:04:26.431Z,9476.00
2022-09-28T11:05:26.514Z,10036.00
2022-09-28T11:06:26.608Z,10824.00
2022-09-28T11:07:26.662Z,11884.00
2022-09-28T11:08:26.712Z,11196.00
2022-09-28T11:09:29.941Z,11188.00
2022-09-28T11:10:26.890Z,10900.00
2022-09-28T11:11:27.010Z,10536.00
2022-09-28T11:12:27.065Z,10852.00
2022-09-28T11:13:27.150Z,10008.00
2022-09-28T11:14:27.209Z,10640.00
2022-09-28T11:15:27.296Z,10728.00
2022-09-28T11:16:27.443Z,10744.00
2022-09-28T11:17:27.451Z,10612.00
2022-09-28T11:18:27.529Z,10580.00
2022-09-28T11:19:27.629Z,10480.00
2022-09-28T11:20:28.622Z,10124.00
2022-09-28T11:21:27.800Z,9648.00
2022-09-28T11:22:27.846Z,9780.00
2022-09-28T11:23:27.954Z,10192.00
2022-09-28T11:24:28.025Z,10424.00
2022-09-28T11:25:28.110Z,10100.00
2022-09-28T11:26:28.240Z,9436.00
2022-09-28T11:27:28.273Z,9024.00
2022-09-28T11:28:28.354Z,9812.00
2022-09-28T11:29:28.453Z,10164.00
2022-09-28T11:30:28.562Z,10924.00
2022-09-28T11:31:28.636Z,11308.00
2022-09-28T11:32:28.714Z,11116.00
2022-09-28T11:33:28.766Z,10904.00
2022-09-28T11:34:41.876Z,10416.00
2022-09-28T11:35:28.951Z,9852.00
2022-09-28T11:36:29.069Z,9424.00
2022-09-28T11:37:29.104Z,9396.00
2022-09-28T11:38:29.212Z,9936.00
2022-09-28T11:39:29.303Z,10500.00
2022-09-28T11:40:29.427Z,11232.00
2022-09-28T11:41:29.481Z,11740.00
2022-09-28T11:42:29.546Z,11656.00
2022-09-28T11:43:29.621Z,11516.00
2022-09-28T11:44:33.352Z,11328.00
2022-09-28T11:45:29.781Z,10936.00
2022-09-28T11:46:29.966Z,10424.00
2022-09-28T11:47:29.961Z,9864.00
2022-09-28T11:48:30.045Z,9484.00
2022-09-28T11:49:30.188Z,9272.00
2022-09-28T11:50:30.199Z,9264.00
2022-09-28T11:51:30.302Z,9288.00
2022-09-28T11:52:30.368Z,9132.00
2022-09-28T11:53:30.443Z,9088.00
2022-09-28T11:54:30.551Z,9132.00
2022-09-28T11:55:30.626Z,9308.00
2022-09-28T11:56:30.748Z,9528.00
2022-09-28T11:57:31.504Z,9680.00
2022-09-28T11:58:30.889Z,9944.00
2022-09-28T11:59:30.965Z,10036.00
2022-09-28T12:00:31.052Z,9868.00
2022-09-28T12:01:31.163Z,9820.00
2022-09-28T12:02:31.368Z,9588.00
2022-09-28T12:03:31.502Z,9076.00
2022-09-28T12:04:31.360Z,8500.00
2022-09-28T12:05:31.433Z,8336.00
2022-09-28T12:06:31.570Z,8444.00
2022-09-28T12:07:31.608Z,8628.00
2022-09-28T12:08:31.683Z,8880.00
2022-09-28T12:09:31.762Z,8908.00
2022-09-28T12:10:31.831Z,8596.00
2022-09-28T12:11:31.932Z,8252.00
2022-09-28T12:12:31.983Z,7992.00
2022-09-28T12:13:32.059Z,7896.00
2022-09-28T12:14:32.134Z,7936.00
2022-09-28T12:15:42.230Z,8204.00
2022-09-28T12:17:00.831Z,8164.00
2022-09-28T12:17:32.457Z,7844.00
2022-09-28T12:18:32.516Z,7268.00
2022-09-28T12:19:32.511Z,6724.00
2022-09-28T12:20:32.595Z,6328.00
2022-09-28T12:21:32.692Z,6004.00
2022-09-28T12:22:32.758Z,5964.00
2022-09-28T12:23:32.825Z,5968.00
2022-09-28T12:24:32.892Z,5788.00
2022-09-28T12:25:32.975Z,5380.00
2022-09-28T12:26:37.186Z,4876.00
2022-09-28T12:27:33.281Z,4264.00
2022-09-28T12:28:33.228Z,3660.00
2022-09-28T12:29:33.300Z,3196.00
2022-09-28T12:30:33.502Z,2924.00
2022-09-28T12:31:33.488Z,2924.00
2022-09-28T12:32:33.555Z,3216.00